Time;durP1;ratioP1;P1;durP2;ratioP2;P2;SDS_P1;SDS_P2;PMS_P1;PMS_P2;Temp;Humidity;BMP_temperature;BMP_pressure;BME280_temperature;BME280_humidity;BME280_pressure;Samples;Min_cycle;Max_cycle;Signal;HPM_P1;HPM_P2
2021/03/22 00:00:59;;;;;;;22.50;14.65;;;;;;;4.38;100.00;100471.81;5115348;28;20106;-74
2021/03/22 00:03:45;;;;;;;25.40;15.32;;;;;;;4.36;100.00;100451.94;5115793;28;20371;-74
2021/03/22 00:06:31;;;;;;;20.50;15.07;;;;;;;4.76;100.00;100446.88;5099843;28;20088;-73
2021/03/22 00:09:16;;;;;;;19.00;13.85;;;;;;;4.48;100.00;100444.19;5114676;28;20024;-74
2021/03/22 00:12:02;;;;;;;22.00;14.77;;;;;;;4.67;100.00;100422.63;5114812;28;20111;-74
2021/03/22 00:14:48;;;;;;;22.60;15.65;;;;;;;4.82;100.00;100436.47;5099259;28;20126;-74
2021/03/22 00:17:34;;;;;;;20.88;14.85;;;;;;;4.62;100.00;100442.47;5114699;28;20506;-74
2021/03/22 00:20:20;;;;;;;21.33;15.05;;;;;;;4.89;100.00;100442.53;5114002;28;20107;-74
2021/03/22 00:23:06;;;;;;;20.50;13.48;;;;;;;4.56;100.00;100435.59;5115934;28;20065;-74
2021/03/22 00:25:52;;;;;;;20.38;14.05;;;;;;;4.76;100.00;100427.81;5099548;28;20030;-74
2021/03/22 00:28:38;;;;;;;19.48;13.55;;;;;;;4.59;100.00;100427.78;5115815;28;20035;-74
2021/03/22 00:31:24;;;;;;;19.20;13.10;;;;;;;4.43;100.00;100422.59;5100489;28;20038;-74
2021/03/22 00:34:10;;;;;;;17.90;12.60;;;;;;;5.16;100.00;100414.84;5114482;28;20038;-74
2021/03/22 00:36:56;;;;;;;19.15;13.65;;;;;;;5.08;100.00;100413.13;5100688;28;20520;-74
2021/03/22 00:39:42;;;;;;;16.80;12.30;;;;;;;4.45;100.00;100408.75;5099957;28;20340;-75
2021/03/22 00:42:27;;;;;;;17.38;12.30;;;;;;;4.56;100.00;100399.28;5114109;28;20027;-76
2021/03/22 00:45:19;;;;;;;17.95;12.60;;;;;;;4.47;100.00;100396.63;5114077;28;20459;-75
2021/03/22 00:48:06;;;;;;;17.38;12.02;;;;;;;4.65;100.00;100396.69;5113974;28;20035;-74
2021/03/22 00:50:52;;;;;;;16.83;11.85;;;;;;;4.77;100.00;100385.44;5099288;28;20057;-75
2021/03/22 00:53:38;;;;;;;18.05;11.77;;;;;;;4.77;100.00;100383.72;5115298;28;20023;-76
2021/03/22 00:56:24;;;;;;;15.05;11.15;;;;;;;4.67;100.00;100371.59;5114593;28;20102;-76
2021/03/22 00:59:09;;;;;;;15.18;11.27;;;;;;;4.77;100.00;100377.66;5113975;28;20358;-76
2021/03/22 01:01:55;;;;;;;14.90;11.05;;;;;;;4.69;100.00;100366.41;5098442;28;20031;-75
2021/03/22 01:04:42;;;;;;;13.98;10.70;;;;;;;4.86;100.00;100360.34;5101416;28;20031;-75
2021/03/22 01:07:28;;;;;;;14.82;10.93;;;;;;;4.42;100.00;100358.63;5114197;28;20138;-76
2021/03/22 01:10:35;;;;;;;15.60;10.88;;;;;;;4.42;100.00;100349.09;5114891;28;20047;-76
2021/03/22 01:13:31;;;;;;;13.95;10.50;;;;;;;3.94;100.00;100346.38;5113205;28;20130;-76
2021/03/22 01:16:23;;;;;;;17.08;11.70;;;;;;;4.02;100.00;100342.09;5114963;28;20031;-76
2021/03/22 01:19:15;;;;;;;17.08;11.63;;;;;;;4.24;100.00;100337.81;5113095;28;20032;-76
2021/03/22 01:22:02;;;;;;;17.52;11.10;;;;;;;4.37;100.00;100332.66;5112614;28;20032;-75
2021/03/22 01:24:48;;;;;;;15.30;10.75;;;;;;;4.06;100.00;100317.91;5114786;28;20497;-76
2021/03/22 01:27:36;;;;;;;15.30;11.13;;;;;;;4.29;100.00;100311.03;5113514;28;20059;-75
2021/03/22 01:30:26;;;;;;;16.92;11.73;;;;;;;4.31;100.00;100306.72;5100240;28;20468;-75
2021/03/22 01:33:14;;;;;;;16.33;11.73;;;;;;;4.43;100.00;100317.09;5114564;28;20024;-76
2021/03/22 01:36:05;;;;;;;19.95;12.88;;;;;;;4.49;100.00;100311.06;5114605;28;20462;-75
2021/03/22 01:38:54;;;;;;;19.45;12.95;;;;;;;4.32;100.00;100300.69;5114498;28;20028;-76
2021/03/22 01:41:52;;;;;;;18.85;13.43;;;;;;;3.84;100.00;100299.72;5100676;28;20072;-75
2021/03/22 01:44:46;;;;;;;19.33;13.48;;;;;;;4.06;100.00;100294.59;5113448;28;20035;-76
2021/03/22 01:47:34;;;;;;;20.77;14.95;;;;;;;3.80;100.00;100291.09;5114447;28;20053;-75
2021/03/22 01:50:25;;;;;;;22.90;14.00;;;;;;;3.79;100.00;100284.19;5113493;28;20036;-75
2021/03/22 01:53:11;;;;;;;24.73;16.35;;;;;;;3.67;100.00;100286.75;5114050;28;20068;-76
2021/03/22 01:56:37;;;;;;;21.40;15.13;;;;;;;4.11;100.00;100281.66;5114133;28;20031;-75
2021/03/22 01:59:29;;;;;;;22.42;15.75;;;;;;;4.13;100.00;100274.72;5114636;28;20054;-75
2021/03/22 02:02:15;;;;;;;18.95;13.23;;;;;;;3.47;100.00;100266.81;5113987;28;20452;-75
2021/03/22 02:05:02;;;;;;;20.58;13.32;;;;;;;3.45;100.00;100264.19;5114558;28;20559;-74
2021/03/22 02:07:53;;;;;;;19.55;13.25;;;;;;;3.38;100.00;100288.31;5114068;28;20069;-74
2021/03/22 02:10:42;;;;;;;18.17;12.48;;;;;;;3.35;100.00;100275.41;5114158;28;20345;-75
2021/03/22 02:13:32;;;;;;;22.02;13.65;;;;;;;3.23;100.00;100274.47;5112780;28;20082;-75
2021/03/22 02:16:52;;;;;;;20.10;13.18;;;;;;;3.45;100.00;100282.31;5118295;28;20028;-75
2021/03/22 02:19:41;;;;;;;16.85;12.15;;;;;;;3.26;100.00;100277.91;5097842;28;20028;-74
2021/03/22 02:23:20;;;;;;;17.95;12.98;;;;;;;2.94;100.00;100281.22;5116586;28;20023;-74
2021/03/22 02:26:33;;;;;;;17.88;12.00;;;;;;;2.81;100.00;100279.41;5056916;28;20359;-75
2021/03/22 02:29:41;;;;;;;17.40;11.32;;;;;;;2.99;100.00;100272.63;5117052;28;20414;-76
2021/03/22 02:32:50;;;;;;;16.95;11.43;;;;;;;2.83;100.00;100264.75;5101266;28;20016;-75
2021/03/22 02:35:42;;;;;;;16.50;11.82;;;;;;;2.87;100.00;100266.50;5116591;28;20039;-74
2021/03/22 02:38:35;;;;;;;16.50;11.32;;;;;;;2.72;100.00;100258.63;5116474;28;20114;-74
2021/03/22 02:41:47;;;;;;;17.27;11.98;;;;;;;2.71;100.00;100246.56;5101498;28;20027;-74
2021/03/22 02:44:36;;;;;;;21.17;12.20;;;;;;;2.89;100.00;100241.53;5100533;28;20047;-75
2021/03/22 02:47:51;;;;;;;19.95;13.70;;;;;;;2.66;100.00;100246.53;5103635;28;20359;-75
2021/03/22 02:50:40;;;;;;;18.60;12.85;;;;;;;2.76;100.00;100243.16;5096014;28;20139;-74
2021/03/22 02:53:26;;;;;;;21.83;14.73;;;;;;;2.60;100.00;100240.44;5102813;28;20345;-74
2021/03/22 02:56:36;;;;;;;24.95;14.88;;;;;;;2.53;100.00;100239.56;5101897;28;20035;-75
2021/03/22 02:59:39;;;;;;;20.80;13.88;;;;;;;2.51;100.00;100246.44;5101221;28;20056;-75
2021/03/22 03:02:30;;;;;;;20.92;12.88;;;;;;;2.81;100.00;100240.59;5100589;28;20032;-76
2021/03/22 03:05:21;;;;;;;22.55;14.07;;;;;;;2.39;100.00;100248.06;5101262;28;20421;-74
2021/03/22 03:08:12;;;;;;;19.30;12.65;;;;;;;2.33;100.00;100260.94;5101203;28;20036;-72
2021/03/22 03:10:58;;;;;;;25.02;15.05;;;;;;;2.33;100.00;100261.81;5102537;28;20509;-74
2021/03/22 03:13:44;;;;;;;21.50;13.80;;;;;;;2.27;100.00;100246.25;5101998;28;20495;-75
2021/03/22 03:16:30;;;;;;;20.67;13.07;;;;;;;2.05;100.00;100251.22;5116554;28;20111;-74
2021/03/22 03:19:16;;;;;;;24.63;15.18;;;;;;;2.32;100.00;100248.84;5116925;28;20034;-74
2021/03/22 03:22:02;;;;;;;26.30;16.10;;;;;;;2.13;100.00;100254.75;5100720;28;20074;-75
2021/03/22 03:24:48;;;;;;;23.65;15.07;;;;;;;2.01;100.00;100260.66;5116418;28;20023;-75
2021/03/22 03:27:34;;;;;;;21.92;13.90;;;;;;;2.08;100.00;100254.69;5102254;28;20414;-75
2021/03/22 03:30:26;;;;;;;23.55;15.23;;;;;;;2.24;100.00;100256.56;5116688;28;20038;-75
2021/03/22 03:33:14;;;;;;;23.27;14.82;;;;;;;2.30;100.00;100260.91;5102035;28;20019;-75
2021/03/22 03:36:00;;;;;;;21.02;13.95;;;;;;;2.29;100.00;100265.22;5101993;28;20034;-76
2021/03/22 03:38:46;;;;;;;22.27;14.82;;;;;;;2.24;100.00;100261.72;5115200;28;20028;-74
2021/03/22 03:41:32;;;;;;;20.25;13.95;;;;;;;2.33;100.00;100266.97;5115694;28;20027;-75
2021/03/22 03:44:18;;;;;;;20.48;13.40;;;;;;;2.06;100.00;100259.00;5115744;28;20100;-75
2021/03/22 03:47:05;;;;;;;26.23;14.85;;;;;;;2.30;100.00;100261.81;5116720;28;20033;-75
2021/03/22 03:49:51;;;;;;;23.25;14.93;;;;;;;2.50;100.00;100255.06;5115986;28;20039;-75
2021/03/22 03:52:37;;;;;;;23.08;14.55;;;;;;;2.42;100.00;100256.72;5100209;28;20137;-74
2021/03/22 03:55:25;;;;;;;24.48;15.23;;;;;;;2.37;100.00;100255.81;5114686;28;20020;-75
2021/03/22 03:58:11;;;;;;;23.20;14.73;;;;;;;2.29;100.00;100256.63;5114120;28;20062;-74
2021/03/22 04:00:57;;;;;;;23.52;15.90;;;;;;;2.12;100.00;100251.28;5100017;28;20024;-74
2021/03/22 04:03:42;;;;;;;26.85;16.77;;;;;;;2.49;100.00;100261.06;5100431;28;20023;-75
2021/03/22 04:06:31;;;;;;;28.35;18.40;;;;;;;2.43;100.00;100255.00;5114622;28;20427;-74
2021/03/22 04:09:19;;;;;;;27.20;17.58;;;;;;;2.11;100.00;100256.44;5100737;28;20059;-74
2021/03/22 04:12:05;;;;;;;25.27;17.05;;;;;;;2.33;100.00;100256.63;5114930;28;20027;-75
2021/03/22 04:14:51;;;;;;;28.55;17.63;;;;;;;2.48;100.00;100248.13;5115580;28;20108;-74
2021/03/22 04:17:37;;;;;;;23.17;16.23;;;;;;;2.03;100.00;100252.91;5101614;28;20473;-74
2021/03/22 04:20:23;;;;;;;26.35;17.10;;;;;;;2.30;100.00;100251.47;5115356;28;20019;-74
2021/03/22 04:23:08;;;;;;;27.90;17.55;;;;;;;2.11;100.00;100249.56;5114773;28;20023;-73
2021/03/22 04:25:54;;;;;;;25.33;16.27;;;;;;;2.13;100.00;100247.84;5115305;28;20023;-74
2021/03/22 04:28:41;;;;;;;23.27;16.10;;;;;;;2.17;100.00;100254.78;5115554;28;20036;-74
2021/03/22 04:31:27;;;;;;;23.95;15.80;;;;;;;2.04;100.00;100250.34;5115442;28;20034;-75
2021/03/22 04:34:13;;;;;;;28.50;18.25;;;;;;;2.20;100.00;100244.47;5099564;28;20464;-74
2021/03/22 04:36:59;;;;;;;23.17;15.68;;;;;;;2.07;100.00;100245.22;5113264;28;20027;-74
2021/03/22 04:39:45;;;;;;;28.98;17.90;;;;;;;2.61;100.00;100247.38;5113851;28;20183;-74
2021/03/22 04:42:30;;;;;;;25.73;16.83;;;;;;;2.20;100.00;100249.63;5100761;28;20447;-74
2021/03/22 04:45:23;;;;;;;25.75;16.55;;;;;;;2.03;100.00;100245.16;5100269;28;20035;-75
2021/03/22 04:48:09;;;;;;;25.17;16.45;;;;;;;2.14;100.00;100240.97;5114635;28;20085;-75
2021/03/22 04:50:55;;;;;;;24.80;15.75;;;;;;;2.01;100.00;100245.16;5113651;28;20115;-76
2021/03/22 04:53:41;;;;;;;26.70;17.80;;;;;;;2.20;100.00;100253.94;5115024;28;20038;-75
2021/03/22 04:56:27;;;;;;;22.73;15.40;;;;;;;1.94;100.00;100245.09;5113933;28;20447;-75
2021/03/22 04:59:14;;;;;;;21.63;14.30;;;;;;;1.99;100.00;100235.66;5114227;28;20059;-73
2021/03/22 05:01:59;;;;;;;27.08;16.95;;;;;;;1.92;100.00;100241.66;5098761;28;20436;-74
2021/03/22 05:04:46;;;;;;;24.10;16.02;;;;;;;1.94;100.00;100234.75;5099268;28;20035;-74
2021/03/22 05:07:32;;;;;;;20.75;14.50;;;;;;;1.69;100.00;100231.06;5114744;28;20028;-74
2021/03/22 05:10:42;;;;;;;23.20;15.05;;;;;;;1.88;100.00;100238.16;5113546;28;20106;-74
2021/03/22 05:13:28;;;;;;;23.95;15.32;;;;;;;2.05;100.00;100236.56;5114534;28;20059;-75
2021/03/22 05:16:14;;;;;;;25.38;16.35;;;;;;;1.93;100.00;100233.03;5113584;28;20036;-76
2021/03/22 05:19:00;;;;;;;23.77;15.52;;;;;;;2.14;100.00;100241.84;5098750;28;20043;-76
2021/03/22 05:21:46;;;;;;;27.33;17.67;;;;;;;2.02;100.00;100241.75;5099639;28;20020;-77
2021/03/22 05:24:32;;;;;;;25.65;16.60;;;;;;;2.31;100.00;100245.44;5100168;28;20037;-77
2021/03/22 05:27:18;;;;;;;25.85;16.75;;;;;;;2.00;100.00;100250.31;5114469;28;20031;-77
2021/03/22 05:30:09;;;;;;;25.60;15.95;;;;;;;1.79;100.00;100245.81;5114855;28;20080;-77
2021/03/22 05:32:57;;;;;;;26.42;17.30;;;;;;;1.92;100.00;100247.66;5098329;28;20028;-75
2021/03/22 05:35:47;;;;;;;27.10;18.35;;;;;;;2.14;100.00;100252.19;5102027;27;20039;-75
2021/03/22 05:38:32;;;;;;;27.52;18.42;;;;;;;2.09;100.00;100247.81;5100327;28;20027;-76
2021/03/22 05:41:23;;;;;;;32.95;21.05;;;;;;;2.14;100.00;100230.63;5099078;28;20059;-76
2021/03/22 05:44:17;;;;;;;32.20;20.63;;;;;;;2.15;100.00;100232.38;5114248;28;20028;-76
2021/03/22 05:47:23;;;;;;;37.50;23.33;;;;;;;2.13;100.00;100227.19;5099140;28;20031;-76
2021/03/22 05:50:15;;;;;;;34.08;21.85;;;;;;;1.90;100.00;100227.84;5118194;28;20110;-76
2021/03/22 05:53:38;;;;;;;39.60;24.67;;;;;;;2.06;100.00;100230.59;5118431;28;20129;-78
2021/03/22 05:56:37;;;;;;;32.63;20.13;;;;;;;1.88;100.00;100229.56;5105066;28;20082;-80
2021/03/22 05:59:56;;;;;;;35.05;22.30;;;;;;;2.03;100.00;100221.91;5119723;28;20356;-78
2021/03/22 06:03:22;;;;;;;38.15;22.90;;;;;;;2.08;100.00;100218.53;5103944;28;20027;-81
2021/03/22 06:06:18;;;;;;;36.35;22.75;;;;;;;1.91;100.00;100214.06;5119145;27;20034;-80
2021/03/22 06:09:40;;;;;;;34.42;22.70;;;;;;;1.93;100.00;100214.97;5118098;28;20493;-81
2021/03/22 06:12:36;;;;;;;43.97;24.63;;;;;;;2.03;100.00;100220.22;5116648;28;20028;-77
2021/03/22 06:15:40;;;;;;;41.25;24.17;;;;;;;2.06;100.00;100222.84;5117824;28;20016;-77
2021/03/22 06:18:34;;;;;;;37.92;24.48;;;;;;;1.80;100.00;100221.72;5117566;28;20430;-79
2021/03/22 06:21:20;;;;;;;37.08;23.75;;;;;;;1.82;100.00;100227.78;5117690;28;20034;-82
2021/03/22 06:24:14;;;;;;;38.90;24.90;;;;;;;2.17;100.00;100230.66;5117842;28;20118;-81
2021/03/22 06:27:00;;;;;;;42.85;25.05;;;;;;;2.05;100.00;100223.66;5117562;28;20023;-79
2021/03/22 06:29:47;;;;;;;36.88;24.00;;;;;;;2.09;100.00;100219.41;5117730;28;20053;-79
2021/03/22 06:32:42;;;;;;;33.08;21.27;;;;;;;2.09;100.00;100220.25;5117981;28;20029;-78
2021/03/22 06:35:35;;;;;;;35.55;22.13;;;;;;;2.25;100.00;100214.34;5117328;28;20032;-79
2021/03/22 06:38:21;;;;;;;29.90;19.25;;;;;;;2.02;100.00;100221.06;5101784;28;20035;-79
2021/03/22 06:41:44;;;;;;;33.25;20.95;;;;;;;2.08;100.00;100218.53;5117450;28;20164;-77
2021/03/22 06:44:33;;;;;;;31.27;20.08;;;;;;;2.01;100.00;100209.00;5117203;28;20020;-79
2021/03/22 06:47:42;;;;;;;29.58;20.33;;;;;;;2.32;100.00;100216.13;5124458;28;20020;-83
2021/03/22 06:50:30;;;;;;;30.88;20.08;;;;;;;2.06;100.00;100209.91;5118936;28;20092;-79
2021/03/22 06:53:37;;;;;;;33.50;21.02;;;;;;;2.08;100.00;100205.63;5101736;28;20028;-79
2021/03/22 06:56:29;;;;;;;30.80;20.35;;;;;;;2.12;100.00;100217.69;5116333;28;20034;-79
2021/03/22 06:59:19;;;;;;;33.28;19.65;;;;;;;1.88;100.00;100209.75;5116867;28;20035;-77
2021/03/22 07:02:20;;;;;;;38.38;23.02;;;;;;;2.09;100.00;100212.50;5117060;28;20069;-77
2021/03/22 07:05:27;;;;;;;34.20;22.48;;;;;;;1.84;100.00;100204.56;5116043;28;20034;-79
2021/03/22 07:08:18;;;;;;;33.30;21.88;;;;;;;1.95;100.00;100211.53;5116592;28;20341;-79
2021/03/22 07:11:11;;;;;;;36.83;24.30;;;;;;;2.10;100.00;100211.69;5116688;28;20066;-79
2021/03/22 07:14:00;;;;;;;34.92;22.48;;;;;;;2.20;100.00;100203.13;5100365;28;20055;-79
2021/03/22 07:17:14;;;;;;;34.60;23.55;;;;;;;1.74;100.00;100205.31;5116054;28;20063;-79
2021/03/22 07:20:13;;;;;;;34.42;21.25;;;;;;;1.87;100.00;100205.44;5115418;28;20492;-76
2021/03/22 07:23:19;;;;;;;26.92;18.25;;;;;;;1.69;100.00;100213.00;5101317;28;20039;-76
2021/03/22 07:26:30;;;;;;;27.10;17.88;;;;;;;1.66;100.00;100217.28;5101014;28;20015;-76
2021/03/22 07:33:14;;;;;;;28.70;18.45;;;;;;;1.92;100.00;100219.25;5096493;28;20036;-78
2021/03/22 07:36:10;;;;;;;40.25;24.67;;;;;;;2.06;100.00;100219.38;5116506;28;20065;-78
2021/03/22 07:39:22;;;;;;;31.05;19.10;;;;;;;1.82;100.00;100217.44;5102472;28;20511;-80
2021/03/22 07:42:32;;;;;;;29.80;18.98;;;;;;;1.88;100.00;100211.47;5103569;28;20027;-79
2021/03/22 07:45:21;;;;;;;46.45;27.83;;;;;;;2.42;100.00;100205.03;5101878;28;20015;-79
2021/03/22 07:48:36;;;;;;;28.85;19.60;;;;;;;2.13;100.00;100211.66;5101172;28;20501;-80
2021/03/22 07:51:34;;;;;;;27.85;18.35;;;;;;;1.83;100.00;100211.44;5115759;28;20035;-80
2021/03/22 07:54:28;;;;;;;25.42;16.15;;;;;;;2.01;100.00;100216.75;5102977;28;20035;-80
2021/03/22 07:57:32;;;;;;;25.95;16.60;;;;;;;1.96;100.00;100209.78;5115652;28;20467;-81
2021/03/22 08:00:44;;;;;;;25.40;17.15;;;;;;;2.05;100.00;100213.31;5122683;28;20092;-80
2021/03/22 08:03:39;;;;;;;22.60;15.23;;;;;;;2.08;100.00;100209.91;5116216;28;20019;-82
2021/03/22 08:07:02;;;;;;;20.88;14.45;;;;;;;1.91;100.00;100208.91;5100673;28;20041;-79
2021/03/22 08:10:19;;;;;;;19.60;13.68;;;;;;;2.12;100.00;100206.50;5114374;28;20030;-81
2021/03/22 08:13:29;;;;;;;23.35;15.27;;;;;;;2.07;100.00;100201.31;5127762;22;20051;-80
2021/03/22 08:16:38;;;;;;;116.43;52.75;;;;;;;2.29;100.00;100197.19;5093382;28;20020;-82
2021/03/22 08:19:33;;;;;;;27.45;16.90;;;;;;;2.17;100.00;100202.25;5099839;28;20321;-80
2021/03/22 08:22:53;;;;;;;25.92;17.27;;;;;;;2.30;100.00;100193.72;5097769;28;20047;-81
2021/03/22 08:25:56;;;;;;;29.40;18.95;;;;;;;2.24;100.00;100202.28;5091392;28;20363;-80
2021/03/22 08:29:01;;;;;;;26.05;17.98;;;;;;;2.12;100.00;100196.16;5099787;28;20361;-79
2021/03/22 08:31:56;;;;;;;29.70;19.50;;;;;;;2.25;100.00;100196.25;5080884;28;20044;-79
2021/03/22 08:35:02;;;;;;;31.27;19.70;;;;;;;2.38;100.00;100202.41;5080492;28;20031;-77
2021/03/22 08:37:58;;;;;;;28.73;17.83;;;;;;;1.93;100.00;100196.88;5094661;28;20403;-77
2021/03/22 08:40:53;;;;;;;29.02;19.42;;;;;;;2.05;100.00;100207.31;5102002;28;20062;-79
2021/03/22 08:43:54;;;;;;;30.45;20.02;;;;;;;2.11;100.00;100194.44;5090387;28;20028;-79
2021/03/22 08:46:56;;;;;;;50.00;34.33;;;;;;;2.43;100.00;100191.25;5098921;28;20420;-77
2021/03/22 08:49:52;;;;;;;25.45;17.88;;;;;;;2.37;100.00;100190.34;5093949;28;20482;-78
2021/03/22 08:52:51;;;;;;;26.83;19.90;;;;;;;2.40;100.00;100188.63;5081760;28;20413;-76
2021/03/22 08:55:40;;;;;;;25.88;17.60;;;;;;;2.19;100.00;100185.91;5079804;28;20035;-78
2021/03/22 08:58:28;;;;;;;25.15;17.95;;;;;;;2.19;100.00;100196.25;5094304;28;20364;-77
2021/03/22 09:01:32;;;;;;;33.15;22.33;;;;;;;2.45;100.00;100199.84;5078727;28;20028;-78
2021/03/22 09:04:32;;;;;;;22.70;16.02;;;;;;;2.28;100.00;100198.88;5093734;28;20039;-78
2021/03/22 09:07:17;;;;;;;25.92;18.15;;;;;;;2.48;100.00;100191.25;5079416;28;20027;-78
2021/03/22 09:10:25;;;;;;;35.92;26.77;;;;;;;2.27;100.00;100194.56;5091578;28;20114;-78
2021/03/22 09:13:36;;;;;;;25.65;15.98;;;;;;;2.15;100.00;100185.84;5092334;28;20113;-78
2021/03/22 09:16:22;;;;;;;25.15;17.38;;;;;;;2.15;100.00;100176.41;5093148;28;20044;-77
2021/03/22 09:19:10;;;;;;;23.63;16.20;;;;;;;2.02;100.00;100187.50;5092756;28;20020;-78
2021/03/22 09:21:59;;;;;;;22.17;15.90;;;;;;;2.16;100.00;100185.88;5092369;28;20032;-78
2021/03/22 09:24:47;;;;;;;21.42;14.85;;;;;;;2.04;100.00;100190.94;5097295;28;20442;-78
2021/03/22 09:27:33;;;;;;;22.80;15.30;;;;;;;2.02;100.00;100181.44;5082904;28;20016;-77
2021/03/22 09:30:35;;;;;;;26.75;15.95;;;;;;;2.24;100.00;100184.22;5098010;28;20028;-77
2021/03/22 09:33:49;;;;;;;22.13;15.35;;;;;;;2.12;100.00;100186.69;5096606;28;20046;-78
2021/03/22 09:36:48;;;;;;;23.67;16.70;;;;;;;2.54;100.00;100188.72;5082906;28;20035;-78
2021/03/22 09:39:47;;;;;;;24.65;17.60;;;;;;;2.53;100.00;100189.59;5084086;28;20024;-78
2021/03/22 09:42:35;;;;;;;29.42;20.05;;;;;;;2.97;100.00;100190.69;5098646;28;20061;-79
2021/03/22 09:45:23;;;;;;;22.85;15.32;;;;;;;2.50;100.00;100193.03;5097288;28;20020;-78
2021/03/22 09:48:21;;;;;;;24.35;15.40;;;;;;;2.30;100.00;100198.91;5097983;28;20467;-80
2021/03/22 09:54:02;;;;;;;26.92;17.17;;;;;;;2.34;100.00;100192.91;5125457;22;20067;-78
2021/03/22 09:57:28;;;;;;;24.25;16.00;;;;;;;2.26;100.00;100179.06;5102831;28;20055;-80
2021/03/22 10:00:50;;;;;;;24.15;17.05;;;;;;;2.39;100.00;100183.44;5117969;28;20023;-78
2021/03/22 10:03:49;;;;;;;27.15;15.48;;;;;;;2.64;100.00;100191.38;5106879;22;20055;-79
2021/03/22 10:07:00;;;;;;;22.98;15.23;;;;;;;2.65;100.00;100182.75;5117505;28;20451;-78
2021/03/22 10:10:17;;;;;;;22.42;14.88;;;;;;;2.44;100.00;100187.78;5120005;28;20417;-80
2021/03/22 10:13:21;;;;;;;19.20;13.30;;;;;;;2.39;100.00;100186.91;5104161;28;20119;-79
2021/03/22 10:16:12;;;;;;;24.40;15.55;;;;;;;2.59;100.00;100190.47;5096369;28;20124;-78
2021/03/22 10:19:06;;;;;;;22.98;15.02;;;;;;;2.70;100.00;100193.13;5096776;28;20027;-78
2021/03/22 10:22:13;;;;;;;29.75;19.58;;;;;;;3.17;100.00;100197.66;5096142;28;20031;-78
2021/03/22 10:28:46;;;;;;;18.00;13.38;;;;;;;2.51;100.00;100193.88;5096552;28;20024;-76
2021/03/22 11:37:53;;;;;;;19.60;14.70;;;;;;;2.75;100.00;100153.50;5156619;22;20093;-76
2021/03/22 11:40:44;;;;;;;16.58;11.98;;;;;;;2.97;100.00;100175.16;5002057;28;20026;-77
2021/03/22 11:43:32;;;;;;;18.05;13.55;;;;;;;2.87;100.00;100182.00;5012114;28;20113;-77
2021/03/22 11:46:25;;;;;;;18.63;12.98;;;;;;;2.92;100.00;100172.53;5026070;28;20018;-76
2021/03/22 11:49:38;;;;;;;17.67;12.52;;;;;;;2.67;100.00;100159.47;5021636;28;20394;-77
2021/03/22 11:52:31;;;;;;;17.67;12.88;;;;;;;2.96;100.00;100168.22;5020613;28;20018;-77
2021/03/22 11:55:33;;;;;;;16.80;12.13;;;;;;;2.92;100.00;100175.13;5034814;28;20362;-76
2021/03/22 11:58:37;;;;;;;20.05;13.90;;;;;;;3.00;100.00;100160.50;5027527;28;20108;-77
2021/03/22 12:01:25;;;;;;;20.00;14.85;;;;;;;3.38;100.00;100168.38;5007309;28;20021;-77
2021/03/22 12:04:17;;;;;;;19.90;13.35;;;;;;;2.62;100.00;100174.13;5034690;28;20088;-76
2021/03/22 12:07:07;;;;;;;23.35;17.35;;;;;;;2.87;100.00;100166.50;5034576;28;20461;-77
2021/03/22 12:09:53;;;;;;;19.33;12.55;;;;;;;2.90;100.00;100163.06;5034622;28;20033;-76
2021/03/22 12:12:38;;;;;;;23.17;16.20;;;;;;;2.85;100.00;100157.00;5020264;28;20026;-77
2021/03/22 12:15:25;;;;;;;18.40;13.05;;;;;;;2.69;100.00;100162.97;5037092;28;20033;-76
2021/03/22 12:18:20;;;;;;;18.92;12.95;;;;;;;2.80;100.00;100150.91;5035221;28;20529;-76
2021/03/22 12:21:11;;;;;;;18.40;13.20;;;;;;;2.65;100.00;100138.78;5020421;28;20076;-77
2021/03/22 12:23:58;;;;;;;20.90;14.13;;;;;;;2.92;100.00;100146.69;5035210;28;20021;-76
2021/03/22 12:26:45;;;;;;;20.17;13.85;;;;;;;3.24;100.00;100139.00;5034705;28;20338;-75
2021/03/22 12:29:30;;;;;;;23.17;15.98;;;;;;;3.34;100.00;100143.34;5035291;28;20056;-77
2021/03/22 12:32:26;;;;;;;22.33;15.32;;;;;;;3.20;100.00;100132.97;5019946;28;20033;-77
2021/03/22 12:35:17;;;;;;;24.90;16.10;;;;;;;3.30;100.00;100132.13;5020951;28;20478;-76
2021/03/22 12:38:05;;;;;;;29.17;18.63;;;;;;;3.72;100.00;100146.84;5019490;28;20042;-75
2021/03/22 12:40:51;;;;;;;29.55;17.42;;;;;;;2.83;100.00;100149.22;5035339;28;20041;-76
2021/03/22 12:43:38;;;;;;;26.10;17.05;;;;;;;3.11;100.00;100153.66;5020844;28;20029;-76
2021/03/22 12:46:36;;;;;;;47.03;31.65;;;;;;;3.25;100.00;100172.66;5012937;28;20506;-75
2021/03/22 12:49:23;;;;;;;34.47;20.92;;;;;;;3.60;100.00;100180.50;5020663;28;20018;-74
2021/03/22 12:52:09;;;;;;;29.30;17.42;;;;;;;3.38;100.00;100171.81;5020927;28;20457;-75
2021/03/22 12:54:54;;;;;;;36.13;20.00;;;;;;;3.08;100.00;100184.69;5035000;28;20108;-75
2021/03/22 12:57:40;;;;;;;27.77;17.15;;;;;;;3.47;100.00;100191.72;5034115;28;20112;-75
2021/03/22 13:00:29;;;;;;;28.40;18.08;;;;;;;3.35;100.00;100195.13;5034258;28;20063;-75
2021/03/22 13:03:35;;;;;;;35.15;21.00;;;;;;;3.55;100.00;100198.66;5019716;28;20060;-74
2021/03/22 13:06:23;;;;;;;35.58;22.48;;;;;;;3.16;100.00;100195.94;5033263;28;20416;-74
2021/03/22 13:09:09;;;;;;;26.67;17.30;;;;;;;3.23;100.00;100199.41;5033902;28;20061;-74
2021/03/22 13:11:55;;;;;;;25.70;17.92;;;;;;;3.23;100.00;100195.09;5035490;28;20037;-77
2021/03/22 13:14:44;;;;;;;24.25;15.63;;;;;;;3.06;100.00;100188.97;5020204;28;20090;-76
2021/03/22 13:17:36;;;;;;;29.45;20.35;;;;;;;3.15;100.00;100196.78;5035582;28;20143;-75
2021/03/22 13:20:24;;;;;;;28.92;19.35;;;;;;;2.82;100.00;100195.78;5036215;28;20389;-75
2021/03/22 13:23:14;;;;;;;31.77;21.25;;;;;;;3.09;100.00;100194.16;5036532;28;20025;-74
2021/03/22 13:26:00;;;;;;;28.60;19.00;;;;;;;2.99;100.00;100188.94;5035501;28;20087;-74
2021/03/22 13:28:53;;;;;;;30.95;21.20;;;;;;;3.12;100.00;100182.97;5035023;28;20033;-75
2021/03/22 13:31:51;;;;;;;33.50;22.48;;;;;;;3.62;100.00;100187.41;5034197;28;20044;-76
2021/03/22 13:34:38;;;;;;;34.22;23.02;;;;;;;3.47;100.00;100181.34;5035009;28;20025;-74
2021/03/22 13:37:25;;;;;;;33.60;22.35;;;;;;;3.45;100.00;100180.47;5033821;28;20053;-74
2021/03/22 13:40:13;;;;;;;41.80;27.88;;;;;;;3.62;100.00;100182.22;5034311;28;20025;-74
2021/03/22 13:43:02;;;;;;;53.80;35.40;;;;;;;4.01;100.00;100189.19;5033487;28;20022;-75
2021/03/22 13:45:49;;;;;;;35.50;23.65;;;;;;;3.58;100.00;100196.03;5033485;28;20053;-77
2021/03/22 13:48:41;;;;;;;32.30;21.55;;;;;;;3.18;100.00;100198.53;5036507;28;20025;-74
2021/03/22 13:51:34;;;;;;;33.33;21.80;;;;;;;3.27;100.00;100194.25;5019677;28;20029;-74
2021/03/22 13:54:25;;;;;;;31.45;21.23;;;;;;;3.51;100.00;100198.63;5018971;28;20469;-76
2021/03/22 13:57:11;;;;;;;31.92;21.77;;;;;;;3.36;100.00;100198.56;5032537;28;20041;-77
2021/03/22 13:59:57;;;;;;;30.25;20.27;;;;;;;3.34;100.00;100202.91;5032548;28;20505;-75
2021/03/22 14:02:43;;;;;;;30.15;20.50;;;;;;;3.44;100.00;100210.69;5033214;28;20454;-74
2021/03/22 14:05:29;;;;;;;33.42;22.30;;;;;;;3.65;100.00;100205.56;5032710;28;20549;-74
2021/03/22 14:08:16;;;;;;;34.03;21.92;;;;;;;3.49;100.00;100210.69;5020029;28;20064;-74
2021/03/22 14:11:02;;;;;;;30.35;21.52;;;;;;;3.79;100.00;100215.94;5036293;28;20053;-74
2021/03/22 14:13:48;;;;;;;35.95;23.52;;;;;;;3.72;100.00;100221.97;5036537;28;20054;-76
2021/03/22 14:16:34;;;;;;;34.33;24.05;;;;;;;4.42;100.00;100209.03;5022464;28;20413;-78
2021/03/22 14:19:20;;;;;;;37.20;25.75;;;;;;;4.43;100.00;100202.97;5037553;28;20485;-77
2021/03/22 14:22:06;;;;;;;45.47;29.77;;;;;;;4.16;100.00;100215.13;5036481;28;20051;-76
2021/03/22 14:24:52;;;;;;;96.78;62.15;;;;;;;4.42;100.00;100232.38;5037200;28;20048;-77